Happy Valentine's Day! 

Flight Track Log - Related Links

Times and Time Zones

All times are in EDT time to prevent confusion due to time zone crossing. See the RPA3396 flight status page for this flight to view local times or setup timezone preferences in your user account.


Time Position Orientation Groundspeed Altitude Reporting Facility
EDT Latitude Longitude Course Direction KTS MPH feet Rate Location/Type
Fri 12:19:14 PM 44.8500 -93.2167 117° Southeast 164 189 2,400  Level Minneapolis TRACON
Fri 12:19:52 PM 44.8292 -93.1803 129° Southeast 188 216 3,200 1,939 Climbing Minneapolis Center
Fri 12:20:53 PM 44.8003 -93.0972 116° Southeast 238 274 5,600 2,390 Climbing Minneapolis Center
Fri 12:21:00 PM 44.7200 -92.6330 113° Southeast  Level Estimated
Fri 12:21:55 PM 44.7728 -92.9950 111° Southeast 276 318 8,100  Level Minneapolis Center
Fri 12:22:00 PM 44.6584 -92.5013 123° Southeast  Level FlightAware Approximate
Fri 12:22:57 PM 44.7425 -92.8844 111° Southeast 299 344 10,600  Level Minneapolis Center
Fri 12:23:00 PM 44.6054 -92.3522 117° Southeast  Level FlightAware Approximate
Fri 12:23:59 PM 44.7028 -92.7386 111° Southeast 334 384 12,900  Level Minneapolis Center
Fri 12:24:00 PM 44.5544 -92.2122 117° Southeast  Level FlightAware Approximate
Fri 12:25:00 PM 44.6857 -92.5732 98° East  Level FlightAware Approximate
Fri 12:26:03 PM 44.6400 -92.4642 98° East 374 430 17,000  Level Minneapolis Center
Fri 12:27:05 PM 44.6067 -92.3217 108° East 388 447 18,900 1,935 Climbing Minneapolis Center
Fri 12:28:07 PM 44.5725 -92.1733 108° East 396 456 21,000 1,805 Climbing Minneapolis Center
Fri 12:29:08 PM 44.5375 -92.0194 108° East 409 471 22,600 1,512 Climbing Minneapolis Center
Fri 12:30:10 PM 44.4925 -91.8303 108° East 423 487 24,100 1,161 Climbing Minneapolis Center
Fri 12:31:12 PM 44.4547 -91.6669 108° East 438 504 25,000 435 Climbing Minneapolis Center
Fri 12:32:14 PM 44.4147 -91.5050 109° East 442 509 25,000 618 Level Minneapolis Center
Fri 12:33:28 PM 44.3442 -91.3200 118° Southeast 448 516 26,400 1,279 Climbing Minneapolis Center
Fri 12:34:30 PM 44.2800 -91.1450 117° Southeast 454 522 27,900 1,306 Climbing Minneapolis Center
Fri 12:35:32 PM 44.2214 -90.9889 118° Southeast 456 525 29,100 1,065 Climbing Minneapolis Center
Fri 12:36:34 PM 44.1614 -90.8308 118° Southeast 462 532 30,100 919 Climbing Minneapolis Center
Fri 12:37:36 PM 44.1006 -90.6711 118° Southeast 468 539 31,000 895 Climbing Minneapolis Center
Fri 12:38:28 PM 44.0536 -90.5386 116° Southeast 476 548 31,800 1,053 Climbing Chicago Center
Fri 12:39:30 PM 44.0056 -90.3331 108° East 473 544 33,000 581 Climbing Chicago Center
Fri 12:40:32 PM 43.9692 -90.1692 107° East 468 539 33,000  Level Chicago Center
Fri 12:41:34 PM 43.9269 -89.9936 108° East 477 549 33,000  Level Chicago Center
Fri 12:42:36 PM 43.8786 -89.7794 107° East 494 568 33,000  Level Chicago Center
Fri 12:43:38 PM 43.8342 -89.5933 108° East 506 582 33,000  Level Chicago Center
Fri 12:44:40 PM 43.7897 -89.4022 108° East 517 595 33,000  Level Chicago Center
Fri 12:45:41 PM 43.7458 -89.2161 108° East 512 589 33,000  Level Chicago Center
Fri 12:46:43 PM 43.7036 -89.0378 108° East 494 568 33,000  Level Chicago Center
Fri 12:47:45 PM 43.6547 -88.8336 108° East 481 554 33,000  Level Chicago Center
Fri 12:48:47 PM 43.6111 -88.6547 109° East 486 559 33,000  Level Chicago Center
Fri 12:49:49 PM 43.5692 -88.4731 108° East 488 562 33,000  Level Chicago Center
Fri 12:50:51 PM 43.5217 -88.2897 110° East 493 567 33,000  Level Chicago Center
Fri 12:51:53 PM 43.4764 -88.1114 109° East 490 564 33,000  Level Chicago Center
Fri 12:52:55 PM 43.4317 -87.9342 109° East 489 563 33,000  Level Chicago Center
Fri 12:53:57 PM 43.3869 -87.7569 109° East 489 563 33,000  Level Chicago Center
Fri 12:54:59 PM 43.3414 -87.5817 110° East 485 558 33,000  Level Chicago Center
Fri 12:56:01 PM 43.2972 -87.4042 109° East 490 564 33,000  Level Chicago Center
Fri 12:57:03 PM 43.2436 -87.1983 110° East 492 566 33,000  Level Chicago Center
Fri 12:58:05 PM 43.1983 -87.0233 109° East 490 564 33,000  Level Chicago Center
Fri 12:59:07 PM 43.1525 -86.8472 110° East 492 566 33,000  Level Chicago Center
Fri 01:00:09 PM 43.1067 -86.6725 110° East 490 564 33,000  Level Chicago Center
Fri 01:01:11 PM 43.0600 -86.4994 110° East 488 562 33,000  Level Chicago Center
Fri 01:02:13 PM 43.0131 -86.3272 110° East 488 562 33,000  Level Chicago Center
Fri 01:03:15 PM 42.9564 -86.1233 111° Southeast 487 560 33,000  Level Chicago Center
Fri 01:04:17 PM 42.9103 -85.9533 110° East 494 568 33,000  Level Chicago Center
Fri 01:05:19 PM 42.8650 -85.7825 110° East 490 564 33,000  Level Chicago Center
Fri 01:06:20 PM 42.8189 -85.6111 110° East 489 563 33,000  Level Chicago Center
Fri 01:07:22 PM 42.7572 -85.4072 112° Southeast 489 563 33,000  Level Chicago Center
Fri 01:08:24 PM 42.6975 -85.2419 116° Southeast 489 563 33,000  Level Chicago Center
Fri 01:09:26 PM 42.6400 -85.0761 115° Southeast 487 560 33,000  Level Chicago Center
Fri 01:10:28 PM 42.5800 -84.9108 116° Southeast 490 564 33,000  Level Chicago Center
Fri 01:11:30 PM 42.5217 -84.7436 115° Southeast 492 566 33,000  Level Chicago Center
Fri 01:12:32 PM 42.4619 -84.5786 116° Southeast 490 564 33,000  Level Chicago Center
Fri 01:13:34 PM 42.3914 -84.3833 116° Southeast 484 557 33,000  Level Chicago Center
Fri 01:13:55 PM 42.3681 -84.3269 119° Southeast 480 552 33,000  Level Cleveland Center
Fri 01:14:55 PM 42.3122 -84.1775 117° Southeast 480 552 33,000  Level Cleveland Center
Fri 01:15:55 PM 42.2528 -84.0142 116° Southeast 480 552 33,000  Level Cleveland Center
Fri 01:16:55 PM 42.1928 -83.8539 117° Southeast 480 552 33,000  Level Cleveland Center
Fri 01:17:55 PM 42.1325 -83.6911 116° Southeast 480 552 33,000  Level Cleveland Center
Fri 01:18:55 PM 42.0683 -83.5175 116° Southeast 480 552 33,000  Level Cleveland Center
Fri 01:19:55 PM 41.9950 -83.3631 123° Southeast 485 558 33,000  Level Cleveland Center
Fri 01:20:55 PM 41.9194 -83.2147 124° Southeast 490 564 33,000  Level Cleveland Center
Fri 01:21:55 PM 41.8472 -83.0808 126° Southeast 490 564 33,000  Level Cleveland Center
Fri 01:22:55 PM 41.7711 -82.9331 125° Southeast 490 564 33,000  Level Cleveland Center
Fri 01:23:55 PM 41.6928 -82.7883 126° Southeast 485 558 33,000  Level Cleveland Center
Fri 01:24:55 PM 41.6142 -82.6411 126° Southeast 485 558 33,000  Level Cleveland Center
Fri 01:25:55 PM 41.5375 -82.4944 125° Southeast 485 558 33,000  Level Cleveland Center
Fri 01:26:55 PM 41.4458 -82.3589 132° Southeast 485 558 33,000  Level Cleveland Center
Fri 01:27:55 PM 41.3475 -82.2400 138° Southeast 485 558 33,000  Level Cleveland Center
Fri 01:28:55 PM 41.2392 -82.0992 136° Southeast 485 558 33,000  Level Cleveland Center
Fri 01:29:55 PM 41.1386 -81.9756 137° Southeast 485 558 33,000  Level Cleveland Center
Fri 01:30:55 PM 41.0417 -81.8686 140° Southeast 497 572 33,000  Level Cleveland Center
Fri 01:31:55 PM 40.9431 -81.7458 137° Southeast 502 578 33,000  Level Cleveland Center
Fri 01:32:55 PM 40.8400 -81.6233 138° Southeast 502 578 33,000  Level Cleveland Center
Fri 01:33:55 PM 40.7286 -81.4928 138° Southeast 502 578 33,000  Level Cleveland Center
Fri 01:34:55 PM 40.6253 -81.3683 138° Southeast 502 578 33,000  Level Cleveland Center
Fri 01:35:55 PM 40.5281 -81.2442 136° Southeast 497 572 33,000  Level Cleveland Center
Fri 01:36:55 PM 40.4328 -81.1314 138° Southeast 497 572 33,000  Level Cleveland Center
Fri 01:37:55 PM 40.3289 -81.0081 138° Southeast 502 578 33,000  Level Cleveland Center
Fri 01:38:55 PM 40.2272 -80.8875 138° Southeast 502 578 33,000  Level Cleveland Center
Fri 01:39:55 PM 40.1211 -80.7678 139° Southeast 502 578 33,000  Level Cleveland Center
Fri 01:40:55 PM 40.0192 -80.6508 139° Southeast 502 578 33,000  Level Cleveland Center
Fri 01:41:55 PM 39.9192 -80.5317 138° Southeast 502 578 33,000  Level Cleveland Center
Fri 01:42:55 PM 39.8169 -80.4183 140° Southeast 491 565 33,000  Level Cleveland Center
Fri 01:43:55 PM 39.7208 -80.3050 138° Southeast 479 551 33,000  Level Cleveland Center
Fri 01:44:55 PM 39.6203 -80.1922 139° Southeast 479 551 33,000 -416 Level Cleveland Center
Fri 01:45:36 PM 39.5500 -80.1053 136° Southeast 475 547 32,300 -1,176 Descending Washington Center
Fri 01:46:37 PM 39.4928 -79.9644 118° Southeast 459 528 31,000 -984 Descending Washington Center
Fri 01:47:38 PM 39.4417 -79.8161 114° Southeast 448 516 30,300 -1,240 Descending Washington Center
Fri 01:48:38 PM 39.3906 -79.6656 114° Southeast 448 516 28,500 -1,678 Descending Washington Center
Fri 01:49:36 PM 39.3433 -79.5178 112° Southeast 448 516 27,000 -756 Descending Washington Center
Fri 01:50:37 PM 39.2958 -79.3731 113° Southeast 441 507 27,000 -590 Level Washington Center
Fri 01:51:38 PM 39.2519 -79.2422 113° Southeast 436 502 25,800 -2,168 Descending Washington Center
Fri 01:52:36 PM 39.2356 -79.0939 98° East 431 496 22,700 -2,924 Descending Washington Center
Fri 01:53:37 PM 39.2231 -78.9514 96° East 411 473 20,000 -1,820 Descending Washington Center
Fri 01:54:38 PM 39.2100 -78.8169 97° East 399 459 19,000 -508 Descending Washington Center
Fri 01:55:35 PM 39.1967 -78.6850 97° East 385 443 19,000  Level Washington Center
Fri 01:56:36 PM 39.1833 -78.5506 97° East 385 443 19,000 -590 Level Washington Center
Fri 01:57:37 PM 39.1681 -78.4161 98° East 379 436 17,800 -1,279 Descending Washington Center
Fri 01:58:38 PM 39.1439 -78.2867 103° East 374 430 16,400 -1,210 Descending Washington Center
Fri 01:59:36 PM 39.1133 -78.1597 107° East 368 423 15,400 -1,008 Descending Washington Center
Fri 02:00:49 PM 39.0744 -78.0142 109° East 368 423 14,200 -1,075 Descending Washington Center
Fri 02:01:50 PM 39.0456 -77.8981 108° East 351 404 13,000 -1,462 Descending Washington Center
Fri 02:02:48 PM 39.0164 -77.7850 108° East 342 394 11,300 -1,017 Descending Washington Center
Fri 02:03:48 PM 38.9853 -77.6667 109° East 324 373 11,000 -462 Descending Washington Center
Fri 02:04:19 PM 38.9667 -77.6167 116° Southeast 302 348 10,600 -1,319 Descending Potomac TRACON
Fri 02:05:19 PM 38.9333 -77.5167 113° Southeast 293 337 9,000 -1,488 Descending Potomac TRACON
Fri 02:06:20 PM 38.9000 -77.4167 113° Southeast 302 348 7,600 -1,370 Descending Potomac TRACON
Fri 02:07:26 PM 38.8500 -77.3167 123° Southeast 289 333 6,100 -762 Descending Potomac TRACON
Fri 02:08:26 PM 38.8167 -77.2333 117° Southeast 243 280 6,000 -52 Descending Potomac TRACON
Fri 02:09:21 PM 38.7833 -77.1667 123° Southeast 221 254 6,000  Level Potomac TRACON
Fri 02:10:22 PM 38.7500 -77.1167 131° Southeast 226 260 6,000 -198 Level Potomac TRACON
Fri 02:11:22 PM 38.6833 -77.1167 180° South 227 261 5,600 -900 Descending Potomac TRACON
Fri 02:12:22 PM 38.6333 -77.1000 165° South 218 251 4,200 -850 Descending Potomac TRACON
Fri 02:13:22 PM 38.5833 -77.0833 165° South 210 242 3,900 -600 Descending Potomac TRACON
Fri 02:14:22 PM 38.5833 -77.0167 90° East 181 208 3,000 -450 Descending Potomac TRACON
Fri 02:15:22 PM 38.6167 -77.0167 360° North 168 193 3,000  Level Potomac TRACON
Fri 02:16:23 PM 38.6667 -77.0167 360° North 168 193 3,000  Level Potomac TRACON

Login

Don't have an account? Register now (free) for customized features, flight alerts, and more!